createdAt,value
2019-03-01T00:00:15.436Z,8.97
2019-03-01T00:01:15.409Z,8.84
2019-03-01T00:02:15.432Z,8.85
2019-03-01T00:03:15.401Z,8.85
2019-03-01T00:04:15.369Z,8.87
2019-03-01T00:05:15.370Z,8.84
2019-03-01T00:06:15.341Z,8.84
2019-03-01T00:07:15.358Z,8.79
2019-03-01T00:08:15.328Z,8.76
2019-03-01T00:09:15.304Z,8.73
2019-03-01T00:10:15.300Z,8.78
2019-03-01T00:11:15.288Z,8.70
2019-03-01T00:12:15.282Z,8.85
2019-03-01T00:13:15.309Z,8.84
2019-03-01T00:14:15.258Z,8.82
2019-03-01T00:15:15.242Z,8.85
2019-03-01T00:16:15.228Z,8.91
2019-03-01T00:17:15.227Z,8.99
2019-03-01T00:18:15.218Z,8.91
2019-03-01T00:19:15.229Z,8.92
2019-03-01T00:20:15.189Z,8.94
2019-03-01T00:21:15.177Z,8.87
2019-03-01T00:22:15.168Z,8.84
2019-03-01T00:23:15.206Z,8.81
2019-03-01T00:24:15.156Z,8.79
2019-03-01T00:25:15.176Z,8.87
2019-03-01T00:26:15.118Z,8.95
2019-03-01T00:27:15.111Z,8.92
2019-03-01T00:28:15.098Z,8.88
2019-03-01T00:29:15.092Z,8.89
2019-03-01T00:30:15.134Z,8.94
2019-03-01T00:31:15.070Z,8.91
2019-03-01T00:32:15.060Z,8.94
2019-03-01T00:33:15.051Z,8.99
2019-03-01T00:34:15.031Z,8.92
2019-03-01T00:35:15.050Z,9.02
2019-03-01T00:36:15.019Z,9.02
2019-03-01T00:37:15.010Z,8.92
2019-03-01T00:38:14.987Z,9.00
2019-03-01T00:39:14.992Z,9.00
2019-03-01T00:40:15.001Z,8.97
2019-03-01T00:41:14.967Z,8.99
2019-03-01T00:42:14.954Z,8.94
2019-03-01T00:43:14.950Z,8.95
2019-03-01T00:44:14.929Z,8.94
2019-03-01T00:45:14.921Z,8.97
2019-03-01T00:46:14.945Z,9.02
2019-03-01T00:47:14.907Z,8.95
2019-03-01T00:48:14.886Z,8.99
2019-03-01T00:49:14.876Z,8.94
2019-03-01T00:50:14.867Z,8.91
2019-03-01T00:51:14.910Z,9.04
2019-03-01T00:52:14.842Z,8.92
2019-03-01T00:53:14.826Z,8.92
2019-03-01T00:54:14.833Z,8.84
2019-03-01T00:55:14.832Z,8.91
2019-03-01T00:56:14.881Z,8.95
2019-03-01T00:57:14.794Z,8.89
2019-03-01T00:58:14.791Z,8.92
2019-03-01T00:59:14.796Z,8.94
2019-03-01T01:00:14.790Z,8.91
2019-03-01T01:01:14.788Z,8.91
2019-03-01T01:02:14.740Z,8.92
2019-03-01T01:03:14.722Z,8.91
2019-03-01T01:04:14.719Z,8.92
2019-03-01T01:05:14.741Z,8.89
2019-03-01T01:06:14.728Z,8.87
2019-03-01T01:07:14.716Z,8.94
2019-03-01T01:08:14.781Z,8.89
2019-03-01T01:09:14.795Z,8.92
2019-03-01T01:10:14.748Z,8.89
2019-03-01T01:11:14.654Z,8.89
2019-03-01T01:12:14.681Z,8.95
2019-03-01T01:13:14.610Z,8.89
2019-03-01T01:14:14.611Z,8.88
2019-03-01T01:15:14.597Z,8.89
2019-03-01T01:16:14.591Z,8.97
2019-03-01T01:17:14.599Z,8.92
2019-03-01T01:18:14.557Z,8.91
2019-03-01T01:19:14.549Z,8.91
2019-03-01T01:20:14.558Z,8.95
2019-03-01T01:21:14.529Z,8.92
2019-03-01T01:22:14.552Z,8.81
2019-03-01T01:23:14.514Z,8.78
2019-03-01T01:24:14.503Z,8.67
2019-03-01T01:25:14.479Z,8.71
2019-03-01T01:26:14.492Z,8.78
2019-03-01T01:27:14.543Z,8.74
2019-03-01T01:28:14.469Z,8.78
2019-03-01T01:29:14.451Z,8.76
2019-03-01T01:30:14.447Z,8.78
2019-03-01T01:31:14.427Z,8.71
2019-03-01T01:32:14.409Z,8.70
2019-03-01T01:33:14.445Z,8.71
2019-03-01T01:34:14.428Z,8.71
2019-03-01T01:35:14.388Z,8.70
2019-03-01T01:36:14.368Z,8.70
2019-03-01T01:37:14.358Z,8.66
2019-03-01T01:38:14.379Z,8.70
2019-03-01T01:39:14.339Z,8.61
2019-03-01T01:40:14.383Z,8.66
2019-03-01T01:41:14.317Z,8.70
2019-03-01T01:42:14.344Z,8.70
2019-03-01T01:43:14.285Z,8.64
2019-03-01T01:44:14.283Z,8.56
2019-03-01T01:45:14.305Z,8.66
2019-03-01T01:46:14.261Z,8.52
2019-03-01T01:47:14.304Z,8.55
2019-03-01T01:48:14.238Z,8.46
2019-03-01T01:49:14.231Z,8.46
2019-03-01T01:50:14.216Z,8.49
2019-03-01T01:51:14.202Z,8.44
2019-03-01T01:52:14.240Z,8.44
2019-03-01T01:53:14.184Z,8.42
2019-03-01T01:54:14.174Z,8.49
2019-03-01T01:55:14.164Z,8.48
2019-03-01T01:56:14.162Z,8.56
2019-03-01T01:57:14.139Z,8.63
2019-03-01T01:58:14.154Z,8.63
2019-03-01T01:59:14.121Z,8.58
2019-03-01T02:00:14.112Z,8.64
2019-03-01T02:01:14.107Z,8.63
2019-03-01T02:02:14.115Z,8.66
2019-03-01T02:03:14.065Z,8.60
2019-03-01T02:04:14.063Z,8.64
2019-03-01T02:05:14.048Z,8.71
2019-03-01T02:06:14.045Z,8.67
2019-03-01T02:07:14.071Z,8.67
2019-03-01T02:08:14.030Z,8.61
2019-03-01T02:09:14.013Z,8.67
2019-03-01T02:10:14.004Z,8.61
2019-03-01T02:11:13.983Z,8.63
2019-03-01T02:12:13.981Z,8.71
2019-03-01T02:13:14.022Z,8.66
2019-03-01T02:14:13.951Z,8.51
2019-03-01T02:15:13.940Z,8.64
2019-03-01T02:16:13.939Z,8.52
2019-03-01T02:17:14.014Z,8.60
2019-03-01T02:18:13.964Z,8.56
2019-03-01T02:19:13.912Z,8.61
2019-03-01T02:20:13.984Z,8.52
2019-03-01T02:21:13.881Z,8.55
2019-03-01T02:22:13.869Z,8.51
2019-03-01T02:23:13.859Z,8.56
2019-03-01T02:24:13.895Z,8.53
2019-03-01T02:25:13.838Z,8.55
2019-03-01T02:26:13.918Z,8.53
2019-03-01T02:27:13.821Z,8.55
2019-03-01T02:28:13.879Z,8.56
2019-03-01T02:29:13.862Z,8.56
2019-03-01T02:30:13.810Z,8.66
2019-03-01T02:31:13.783Z,8.61
2019-03-01T02:32:13.770Z,8.64
2019-03-01T02:33:13.801Z,8.60
2019-03-01T02:34:13.780Z,8.60
2019-03-01T02:35:13.728Z,8.63
2019-03-01T02:36:13.716Z,8.51
2019-03-01T02:37:13.717Z,8.63
2019-03-01T02:38:13.753Z,8.61
2019-03-01T02:39:13.696Z,8.64
2019-03-01T02:40:13.706Z,8.58
2019-03-01T02:41:13.668Z,8.49
2019-03-01T02:42:13.651Z,8.45
2019-03-01T02:43:13.646Z,8.42
2019-03-01T02:44:13.642Z,8.42
2019-03-01T02:45:13.675Z,8.41
2019-03-01T02:46:13.653Z,8.42
2019-03-01T02:47:13.598Z,8.42
2019-03-01T02:48:13.590Z,8.42
2019-03-01T02:49:13.578Z,8.44
2019-03-01T02:50:13.580Z,8.46
2019-03-01T02:51:13.597Z,8.56
2019-03-01T02:52:13.557Z,8.53
2019-03-01T02:53:13.544Z,8.53
2019-03-01T02:54:13.528Z,8.46
2019-03-01T02:55:13.521Z,8.52
2019-03-01T02:56:13.526Z,8.51
2019-03-01T02:57:13.492Z,8.49
2019-03-01T02:58:13.491Z,8.49
2019-03-01T02:59:13.474Z,8.63
2019-03-01T03:00:13.463Z,8.46
2019-03-01T03:01:13.497Z,8.51
2019-03-01T03:02:13.451Z,8.42
2019-03-01T03:03:13.432Z,8.41
2019-03-01T03:04:13.435Z,8.49
2019-03-01T03:05:13.418Z,8.41
2019-03-01T03:06:13.443Z,8.51
2019-03-01T03:07:13.390Z,8.48
2019-03-01T03:08:13.374Z,8.52
2019-03-01T03:09:13.367Z,8.55
2019-03-01T03:10:13.359Z,8.53
2019-03-01T03:11:13.443Z,8.52
2019-03-01T03:12:13.342Z,8.38
2019-03-01T03:13:13.334Z,8.42
2019-03-01T03:14:13.329Z,8.44
2019-03-01T03:15:13.300Z,8.44
2019-03-01T03:16:13.326Z,8.41
2019-03-01T03:17:13.332Z,8.36
2019-03-01T03:18:13.263Z,8.37
2019-03-01T03:19:13.262Z,8.38
2019-03-01T03:20:13.242Z,8.33
2019-03-01T03:21:13.236Z,8.31
2019-03-01T03:22:13.752Z,8.27
2019-03-01T03:23:13.230Z,8.24
2019-03-01T03:24:13.203Z,8.26
2019-03-01T03:25:13.201Z,8.30
2019-03-01T03:26:13.190Z,8.31
2019-03-01T03:27:13.164Z,8.42
2019-03-01T03:28:13.223Z,8.41
2019-03-01T03:29:13.163Z,8.37
2019-03-01T03:30:13.146Z,8.45
2019-03-01T03:31:13.142Z,8.42
2019-03-01T03:32:13.116Z,8.56
2019-03-01T03:33:13.129Z,8.56
2019-03-01T03:34:13.101Z,8.56
2019-03-01T03:35:13.092Z,8.58
2019-03-01T03:36:13.091Z,8.51
2019-03-01T03:37:13.075Z,8.61
2019-03-01T03:38:13.091Z,8.61
2019-03-01T03:39:13.045Z,8.53
2019-03-01T03:40:13.091Z,8.56
2019-03-01T03:41:13.021Z,8.66
2019-03-01T03:42:13.002Z,8.55
2019-03-01T03:43:12.996Z,8.63
2019-03-01T03:44:13.016Z,8.60
2019-03-01T03:45:12.972Z,8.56
2019-03-01T03:46:12.979Z,8.63
2019-03-01T03:47:12.955Z,8.63
2019-03-01T03:48:12.941Z,8.51
2019-03-01T03:49:12.965Z,8.52
2019-03-01T03:50:12.918Z,8.58
2019-03-01T03:51:12.907Z,8.67
2019-03-01T03:52:12.892Z,8.70
2019-03-01T03:53:12.887Z,8.66
2019-03-01T03:54:12.873Z,8.71
2019-03-01T03:55:12.898Z,8.73
2019-03-01T03:56:12.848Z,8.74
2019-03-01T03:57:12.839Z,8.71
2019-03-01T03:58:12.840Z,8.74
2019-03-01T03:59:12.818Z,8.76
2019-03-01T04:00:12.854Z,8.71
2019-03-01T04:01:12.826Z,8.84
2019-03-01T04:02:12.834Z,8.74
2019-03-01T04:03:12.780Z,8.73
2019-03-01T04:04:12.769Z,8.84
2019-03-01T04:05:12.761Z,8.88
2019-03-01T04:06:12.777Z,8.74
2019-03-01T04:07:12.737Z,8.76
2019-03-01T04:08:12.723Z,8.87
2019-03-01T04:09:12.718Z,8.91
2019-03-01T04:10:12.721Z,8.76
2019-03-01T04:11:12.748Z,8.84
2019-03-01T04:12:12.691Z,8.87
2019-03-01T04:13:12.705Z,8.82
2019-03-01T04:14:12.676Z,8.88
2019-03-01T04:15:12.648Z,8.85
2019-03-01T04:16:12.669Z,8.87
2019-03-01T04:17:12.634Z,8.79
2019-03-01T04:18:12.637Z,8.85
2019-03-01T04:19:12.613Z,8.78
2019-03-01T04:20:12.618Z,8.73
2019-03-01T04:21:12.590Z,8.79
2019-03-01T04:22:12.609Z,8.79
2019-03-01T04:23:12.579Z,8.58
2019-03-01T04:24:12.567Z,8.46
2019-03-01T04:25:12.554Z,8.52
2019-03-01T04:26:12.546Z,8.52
2019-03-01T04:27:12.567Z,8.44
2019-03-01T04:28:12.511Z,8.41
2019-03-01T04:29:12.500Z,8.36
2019-03-01T04:30:12.500Z,8.38
2019-03-01T04:31:12.493Z,8.38
2019-03-01T04:32:12.469Z,8.46
2019-03-01T04:33:12.491Z,8.49
2019-03-01T04:34:12.445Z,8.53
2019-03-01T04:35:12.435Z,8.49
2019-03-01T04:36:12.434Z,8.37
2019-03-01T04:37:12.464Z,8.41
2019-03-01T04:38:12.435Z,8.30
2019-03-01T04:39:12.391Z,8.28
2019-03-01T04:40:12.384Z,8.26
2019-03-01T04:41:12.370Z,8.16
2019-03-01T04:42:12.376Z,8.18
2019-03-01T04:43:12.391Z,8.09
2019-03-01T04:44:12.340Z,8.06
2019-03-01T04:45:12.336Z,8.06
2019-03-01T04:46:12.317Z,8.06
2019-03-01T04:47:12.308Z,8.00
2019-03-01T04:48:12.296Z,7.93
2019-03-01T04:49:12.311Z,7.83
2019-03-01T04:50:12.281Z,7.83
2019-03-01T04:51:12.277Z,7.87
2019-03-01T04:52:12.256Z,7.82
2019-03-01T04:53:12.271Z,7.88
2019-03-01T04:54:12.248Z,7.87
2019-03-01T04:55:12.268Z,7.91
2019-03-01T04:56:12.212Z,7.97
2019-03-01T04:57:12.202Z,7.93
2019-03-01T04:58:12.183Z,7.94
2019-03-01T04:59:12.205Z,7.93
2019-03-01T05:00:12.161Z,7.93
2019-03-01T05:01:12.158Z,7.90
2019-03-01T05:02:12.157Z,7.88
2019-03-01T05:03:12.135Z,7.85
2019-03-01T05:04:12.274Z,7.88
2019-03-01T05:05:12.153Z,7.97
2019-03-01T05:06:12.093Z,7.82
2019-03-01T05:07:12.093Z,7.87
2019-03-01T05:08:12.086Z,7.88
2019-03-01T05:09:12.076Z,7.77
2019-03-01T05:10:12.121Z,7.83
2019-03-01T05:11:12.058Z,7.83
2019-03-01T05:12:12.032Z,7.77
2019-03-01T05:13:12.033Z,7.85
2019-03-01T05:14:12.021Z,7.85
2019-03-01T05:15:12.039Z,7.94
2019-03-01T05:16:11.995Z,7.88
2019-03-01T05:17:11.990Z,7.91
2019-03-01T05:18:11.967Z,7.85
2019-03-01T05:19:11.963Z,7.83
2019-03-01T05:20:11.981Z,7.77
2019-03-01T05:21:11.947Z,7.70
2019-03-01T05:22:11.931Z,7.80
2019-03-01T05:23:11.921Z,7.72
2019-03-01T05:24:11.906Z,7.67
2019-03-01T05:25:11.940Z,7.76
2019-03-01T05:26:11.883Z,7.75
2019-03-01T05:27:11.898Z,7.91
2019-03-01T05:28:11.859Z,7.82
2019-03-01T05:29:11.855Z,7.91
2019-03-01T05:30:11.831Z,7.95
2019-03-01T05:31:11.819Z,7.95
2019-03-01T05:32:11.806Z,7.98
2019-03-01T05:33:11.835Z,7.95
2019-03-01T05:34:11.793Z,8.00
2019-03-01T05:35:11.912Z,8.03
2019-03-01T05:36:11.814Z,8.08
2019-03-01T05:37:11.760Z,8.03
2019-03-01T05:38:11.745Z,8.03
2019-03-01T05:39:11.739Z,8.08
2019-03-01T05:40:11.733Z,8.03
2019-03-01T05:41:11.739Z,8.10
2019-03-01T05:42:11.745Z,8.06
2019-03-01T05:43:11.695Z,8.08
2019-03-01T05:44:11.686Z,8.15
2019-03-01T05:45:11.669Z,8.28
2019-03-01T05:46:11.697Z,8.31
2019-03-01T05:47:11.654Z,8.27
2019-03-01T05:48:11.669Z,8.30
2019-03-01T05:49:11.637Z,8.34
2019-03-01T05:50:11.620Z,8.36
2019-03-01T05:51:11.608Z,8.36
2019-03-01T05:52:11.630Z,8.34
2019-03-01T05:53:11.587Z,8.38
2019-03-01T05:54:11.579Z,8.36
2019-03-01T05:55:11.592Z,8.41
2019-03-01T05:56:11.596Z,8.45
2019-03-01T05:57:11.542Z,8.41
2019-03-01T05:58:16.542Z,8.45
2019-03-01T05:59:12.527Z,8.51
2019-03-01T06:00:11.513Z,8.55
2019-03-01T06:01:11.503Z,8.52
2019-03-01T06:02:11.488Z,8.55
2019-03-01T06:03:11.511Z,8.60
2019-03-01T06:04:11.470Z,8.60
2019-03-01T06:05:11.454Z,8.60
2019-03-01T06:06:11.450Z,8.56
2019-03-01T06:07:11.443Z,8.66
2019-03-01T06:08:11.450Z,8.55
2019-03-01T06:09:11.459Z,8.61
2019-03-01T06:10:11.419Z,8.58
2019-03-01T06:11:11.428Z,8.56
2019-03-01T06:12:11.383Z,8.63
2019-03-01T06:13:11.375Z,8.64
2019-03-01T06:14:11.362Z,8.56
2019-03-01T06:15:11.382Z,8.66
2019-03-01T06:16:11.346Z,8.56
2019-03-01T06:17:11.324Z,8.55
2019-03-01T06:18:11.324Z,8.71
2019-03-01T06:19:11.344Z,8.64
2019-03-01T06:20:11.303Z,8.64
2019-03-01T06:21:11.298Z,8.64
2019-03-01T06:22:11.277Z,8.69
2019-03-01T06:23:11.262Z,8.70
2019-03-01T06:24:11.252Z,8.63
2019-03-01T06:25:11.287Z,8.66
2019-03-01T06:26:11.247Z,8.66
2019-03-01T06:27:11.239Z,8.63
2019-03-01T06:28:11.212Z,8.67
2019-03-01T06:29:11.228Z,8.64
2019-03-01T06:30:11.188Z,8.63
2019-03-01T06:31:11.243Z,8.64
2019-03-01T06:32:11.175Z,8.69
2019-03-01T06:33:11.161Z,8.66
2019-03-01T06:34:11.155Z,8.74
2019-03-01T06:35:11.139Z,8.66
2019-03-01T06:36:11.122Z,8.71
2019-03-01T06:37:11.140Z,8.79
2019-03-01T06:38:11.117Z,8.74
2019-03-01T06:39:11.099Z,8.56
2019-03-01T06:40:11.116Z,8.53
2019-03-01T06:41:11.123Z,8.66
2019-03-01T06:42:11.078Z,8.58
2019-03-01T06:43:11.048Z,8.63
2019-03-01T06:44:11.053Z,8.58
2019-03-01T06:45:11.035Z,8.64
2019-03-01T06:46:11.080Z,8.71
2019-03-01T06:47:11.003Z,8.73
2019-03-01T06:48:10.996Z,8.69
2019-03-01T06:49:10.982Z,8.79
2019-03-01T06:50:13.028Z,8.71
2019-03-01T06:51:10.982Z,8.67
2019-03-01T06:52:11.016Z,8.84
2019-03-01T06:53:10.991Z,8.84
2019-03-01T06:54:10.930Z,8.82
2019-03-01T06:55:10.917Z,8.94
2019-03-01T06:56:10.918Z,8.89
2019-03-01T06:57:10.917Z,8.88
2019-03-01T06:58:10.892Z,8.88
2019-03-01T06:59:10.908Z,8.94
2019-03-01T07:00:10.892Z,9.06
2019-03-01T07:01:10.855Z,9.00
2019-03-01T07:02:10.850Z,9.10
2019-03-01T07:03:10.870Z,9.06
2019-03-01T07:04:10.876Z,9.06
2019-03-01T07:05:10.831Z,9.06
2019-03-01T07:06:10.868Z,9.16
2019-03-01T07:07:10.792Z,9.06
2019-03-01T07:08:10.789Z,9.06
2019-03-01T07:09:10.801Z,9.08
2019-03-01T07:10:10.756Z,9.22
2019-03-01T07:11:10.751Z,9.13
2019-03-01T07:12:10.752Z,9.18
2019-03-01T07:13:10.736Z,9.08
2019-03-01T07:14:10.745Z,9.11
2019-03-01T07:15:10.703Z,9.21
2019-03-01T07:16:11.260Z,9.18
2019-03-01T07:17:10.743Z,9.19
2019-03-01T07:18:10.675Z,9.19
2019-03-01T07:19:10.659Z,9.31
2019-03-01T07:20:12.637Z,9.25
2019-03-01T07:21:10.635Z,9.26
2019-03-01T07:22:10.631Z,9.39
2019-03-01T07:23:10.628Z,9.28
2019-03-01T07:24:10.694Z,9.40
2019-03-01T07:25:10.630Z,9.25
2019-03-01T07:26:10.578Z,9.34
2019-03-01T07:27:12.273Z,9.39
2019-03-01T07:28:10.565Z,9.46
2019-03-01T07:29:10.561Z,9.39
2019-03-01T07:30:10.579Z,9.44
2019-03-01T07:31:10.536Z,9.41
2019-03-01T07:32:10.513Z,9.44
2019-03-01T07:33:10.554Z,9.41
2019-03-01T07:34:10.514Z,9.44
2019-03-01T07:35:10.494Z,9.43
2019-03-01T07:36:10.512Z,9.44
2019-03-01T07:37:10.498Z,9.48
2019-03-01T07:38:10.462Z,9.39
2019-03-01T07:39:10.437Z,9.44
2019-03-01T07:40:10.437Z,9.47
2019-03-01T07:41:10.444Z,9.41
2019-03-01T07:42:10.453Z,9.43
2019-03-01T07:43:10.405Z,9.51
2019-03-01T07:44:10.430Z,9.56
2019-03-01T07:45:10.381Z,9.54
2019-03-01T07:46:10.365Z,9.44
2019-03-01T07:47:10.389Z,9.40
2019-03-01T07:48:10.363Z,9.43
2019-03-01T07:49:10.342Z,9.50
2019-03-01T07:50:10.446Z,9.43
2019-03-01T07:51:10.357Z,9.39
2019-03-01T07:52:10.305Z,9.44
2019-03-01T07:53:10.325Z,9.44
2019-03-01T07:54:13.298Z,9.43
2019-03-01T07:55:11.276Z,9.40
2019-03-01T07:56:10.292Z,9.41
2019-03-01T07:57:11.425Z,9.46
2019-03-01T07:58:10.238Z,9.40
2019-03-01T07:59:10.224Z,9.44
2019-03-01T08:00:10.860Z,9.41
2019-03-01T08:01:10.212Z,9.44
2019-03-01T08:02:10.201Z,9.41
2019-03-01T08:03:11.972Z,9.48
2019-03-01T08:04:10.182Z,9.44
2019-03-01T08:05:10.187Z,9.54
2019-03-01T08:06:13.054Z,9.41
2019-03-01T08:07:10.147Z,9.44
2019-03-01T08:08:10.155Z,9.44
2019-03-01T08:09:10.118Z,9.47
2019-03-01T08:10:10.103Z,9.44
2019-03-01T08:11:10.116Z,9.41
2019-03-01T08:12:10.090Z,9.40
2019-03-01T08:13:10.095Z,9.50
2019-03-01T08:14:10.349Z,9.41
2019-03-01T08:15:10.061Z,9.41
2019-03-01T08:16:10.047Z,9.41
2019-03-01T08:17:10.043Z,9.51
2019-03-01T08:18:10.060Z,9.48
2019-03-01T08:19:10.030Z,9.44
2019-03-01T08:20:10.008Z,9.41
2019-03-01T08:21:10.384Z,9.51
2019-03-01T08:22:09.973Z,9.43
2019-03-01T08:23:09.963Z,9.46
2019-03-01T08:24:10.962Z,9.43
2019-03-01T08:25:23.496Z,9.44
2019-03-01T08:26:10.933Z,9.43
2019-03-01T08:27:11.126Z,9.55
2019-03-01T08:28:09.902Z,9.44
2019-03-01T08:29:18.502Z,9.46
2019-03-01T08:30:10.504Z,9.40
2019-03-01T08:31:09.982Z,9.46
2019-03-01T08:32:09.876Z,9.46
2019-03-01T08:33:09.853Z,9.44
2019-03-01T08:34:09.844Z,9.48
2019-03-01T08:35:09.868Z,9.47
2019-03-01T08:36:09.831Z,9.51
2019-03-01T08:37:09.823Z,9.44
2019-03-01T08:38:09.801Z,9.46
2019-03-01T08:39:09.789Z,9.44
2019-03-01T08:40:11.456Z,9.44
2019-03-01T08:41:09.770Z,9.44
2019-03-01T08:42:09.768Z,9.43
2019-03-01T08:43:13.022Z,9.46
2019-03-01T08:44:09.749Z,9.44
2019-03-01T08:45:09.732Z,9.47
2019-03-01T08:46:10.461Z,9.46
2019-03-01T08:47:09.710Z,9.51
2019-03-01T08:48:09.701Z,9.61
2019-03-01T08:49:10.524Z,9.58
2019-03-01T08:50:09.685Z,9.48
2019-03-01T08:51:09.693Z,9.54
2019-03-01T08:52:09.648Z,9.40
2019-03-01T08:53:11.518Z,9.47
2019-03-01T08:54:10.638Z,9.46
2019-03-01T08:55:09.629Z,9.43
2019-03-01T08:56:10.927Z,9.41
2019-03-01T08:57:09.604Z,9.48
2019-03-01T08:58:09.584Z,9.44
2019-03-01T08:59:09.579Z,9.44
2019-03-01T09:00:09.572Z,9.48
2019-03-01T09:01:09.784Z,9.51
2019-03-01T09:02:09.579Z,9.62
2019-03-01T09:03:09.552Z,9.58
2019-03-01T09:04:09.535Z,9.58
2019-03-01T09:05:09.885Z,9.55
2019-03-01T09:06:09.595Z,9.64
2019-03-01T09:07:09.506Z,9.58
2019-03-01T09:08:09.485Z,9.50
2019-03-01T09:09:09.480Z,9.58
2019-03-01T09:10:09.457Z,9.47
2019-03-01T09:11:10.418Z,9.44
2019-03-01T09:12:09.463Z,9.44
2019-03-01T09:13:09.444Z,9.43
2019-03-01T09:14:09.417Z,9.40
2019-03-01T09:15:09.418Z,9.56
2019-03-01T09:16:09.406Z,9.58
2019-03-01T09:17:09.391Z,9.62
2019-03-01T09:18:11.574Z,9.55
2019-03-01T09:19:09.404Z,9.61
2019-03-01T09:20:09.358Z,9.62
2019-03-01T09:21:12.276Z,9.56
2019-03-01T09:22:09.330Z,9.58
2019-03-01T09:23:21.207Z,9.44
2019-03-01T09:24:10.347Z,9.44
2019-03-01T09:25:09.290Z,9.41
2019-03-01T09:26:09.351Z,9.44
2019-03-01T09:27:09.332Z,9.40
2019-03-01T09:28:09.264Z,9.39
2019-03-01T09:29:09.299Z,9.41
2019-03-01T09:30:09.242Z,9.29
2019-03-01T09:31:09.733Z,9.41
2019-03-01T09:32:09.220Z,9.41
2019-03-01T09:33:09.266Z,9.37
2019-03-01T09:34:09.387Z,9.43
2019-03-01T09:35:09.258Z,9.43
2019-03-01T09:36:09.219Z,9.43
2019-03-01T09:37:09.171Z,9.44
2019-03-01T09:38:11.251Z,9.41
2019-03-01T09:39:09.179Z,9.51
2019-03-01T09:40:09.249Z,9.41
2019-03-01T09:41:09.309Z,9.48
2019-03-01T09:42:12.414Z,9.51
2019-03-01T09:43:10.265Z,9.50
2019-03-01T09:44:09.577Z,9.54
2019-03-01T09:45:10.458Z,9.62
2019-03-01T09:46:10.739Z,9.55
2019-03-01T09:47:09.165Z,9.55
2019-03-01T09:48:12.198Z,9.76
2019-03-01T09:49:09.233Z,9.64
2019-03-01T09:50:09.115Z,9.84
2019-03-01T09:51:10.603Z,9.95
2019-03-01T09:52:09.033Z,9.97
2019-03-01T09:53:09.767Z,10.02
2019-03-01T09:54:09.418Z,10.04
2019-03-01T09:55:09.022Z,10.01
2019-03-01T09:56:09.689Z,10.04
2019-03-01T09:57:08.953Z,9.95
2019-03-01T09:58:08.947Z,9.98
2019-03-01T09:59:09.001Z,9.84
2019-03-01T10:00:08.929Z,9.97
2019-03-01T10:01:08.944Z,9.98
2019-03-01T10:02:08.911Z,9.99
2019-03-01T10:03:08.910Z,9.97
2019-03-01T10:04:08.923Z,9.97
2019-03-01T10:05:08.860Z,9.94
2019-03-01T10:06:08.891Z,10.01
2019-03-01T10:07:08.916Z,9.98
2019-03-01T10:08:08.843Z,9.98
2019-03-01T10:09:08.920Z,9.98
2019-03-01T10:10:08.849Z,9.89
2019-03-01T10:11:08.853Z,9.95
2019-03-01T10:12:08.821Z,9.97
2019-03-01T10:13:08.822Z,9.92
2019-03-01T10:14:08.780Z,9.99
2019-03-01T10:15:08.870Z,9.98
2019-03-01T10:16:08.776Z,10.01
2019-03-01T10:17:08.771Z,10.05
2019-03-01T10:18:08.743Z,10.07
2019-03-01T10:19:08.752Z,9.99
2019-03-01T10:20:08.786Z,10.01
2019-03-01T10:21:08.800Z,10.13
2019-03-01T10:22:08.703Z,10.25
2019-03-01T10:23:08.711Z,10.26
2019-03-01T10:24:08.704Z,10.23
2019-03-01T10:25:08.697Z,10.33
2019-03-01T10:26:08.705Z,10.26
2019-03-01T10:27:08.627Z,10.34
2019-03-01T10:28:08.619Z,10.16
2019-03-01T10:29:08.602Z,10.17
2019-03-01T10:30:08.600Z,10.17
2019-03-01T10:31:08.624Z,10.25
2019-03-01T10:32:08.570Z,10.28
2019-03-01T10:33:08.565Z,10.25
2019-03-01T10:34:08.562Z,10.26
2019-03-01T10:35:08.547Z,10.30
2019-03-01T10:36:08.559Z,10.15
2019-03-01T10:37:08.546Z,10.10
2019-03-01T10:38:08.509Z,10.20
2019-03-01T10:39:08.532Z,10.16
2019-03-01T10:40:08.479Z,10.16
2019-03-01T10:41:08.470Z,10.09
2019-03-01T10:42:08.464Z,10.07
2019-03-01T10:43:08.454Z,10.04
2019-03-01T10:44:08.445Z,10.04
2019-03-01T10:45:08.461Z,10.16
2019-03-01T10:46:08.412Z,10.28
2019-03-01T10:47:08.409Z,10.19
2019-03-01T10:48:08.424Z,10.10
2019-03-01T10:49:08.384Z,10.09
2019-03-01T10:50:08.424Z,9.99
2019-03-01T10:51:08.379Z,10.10
2019-03-01T10:52:08.377Z,9.98
2019-03-01T10:53:08.355Z,9.87
2019-03-01T10:54:08.327Z,9.87
2019-03-01T10:55:08.415Z,9.79
2019-03-01T10:56:08.350Z,9.77
2019-03-01T10:57:08.298Z,9.84
2019-03-01T10:58:08.305Z,9.74
2019-03-01T10:59:08.279Z,9.73
2019-03-01T11:00:08.304Z,9.64
2019-03-01T11:01:08.349Z,9.55
2019-03-01T11:02:08.257Z,9.54
2019-03-01T11:03:08.265Z,9.61
2019-03-01T11:04:08.220Z,9.59
2019-03-01T11:05:08.215Z,9.58
2019-03-01T11:06:08.247Z,9.62
2019-03-01T11:07:08.196Z,9.61
2019-03-01T11:08:08.182Z,9.56
2019-03-01T11:09:08.168Z,9.58
2019-03-01T11:10:08.158Z,9.48
2019-03-01T11:11:08.185Z,9.62
2019-03-01T11:12:08.179Z,9.64
2019-03-01T11:13:08.141Z,9.61
2019-03-01T11:14:08.125Z,9.65
2019-03-01T11:15:08.106Z,9.72
2019-03-01T11:16:08.088Z,9.69
2019-03-01T11:17:08.117Z,9.82
2019-03-01T11:18:08.070Z,9.92
2019-03-01T11:19:08.097Z,9.95
2019-03-01T11:20:08.050Z,10.01
2019-03-01T11:21:08.117Z,10.02
2019-03-01T11:22:08.030Z,10.05
2019-03-01T11:23:08.030Z,10.01
2019-03-01T11:24:08.006Z,10.02
2019-03-01T11:25:08.001Z,9.97
2019-03-01T11:26:08.017Z,9.99
2019-03-01T11:27:12.811Z,9.89
2019-03-01T11:28:10.529Z,9.86
2019-03-01T11:29:07.981Z,9.92
2019-03-01T11:30:07.940Z,9.79
2019-03-01T11:31:07.923Z,9.73
2019-03-01T11:32:07.944Z,9.65
2019-03-01T11:33:07.908Z,9.79
2019-03-01T11:34:07.902Z,9.66
2019-03-01T11:35:07.880Z,9.68
2019-03-01T11:36:07.877Z,9.66
2019-03-01T11:37:07.912Z,9.58
2019-03-01T11:38:07.847Z,9.69
2019-03-01T11:39:07.836Z,9.65
2019-03-01T11:40:07.827Z,9.68
2019-03-01T11:41:07.816Z,9.66
2019-03-01T11:42:07.816Z,9.66
2019-03-01T11:43:07.833Z,9.64
2019-03-01T11:44:07.789Z,9.73
2019-03-01T11:45:07.769Z,9.74
2019-03-01T11:46:07.767Z,9.83
2019-03-01T11:47:07.766Z,9.80
2019-03-01T11:48:07.779Z,9.74
2019-03-01T11:49:07.735Z,9.79
2019-03-01T11:50:07.715Z,9.87
2019-03-01T11:51:07.706Z,9.76
2019-03-01T11:52:07.698Z,9.82
2019-03-01T11:53:07.708Z,9.86
2019-03-01T11:54:15.836Z,9.84
2019-03-01T11:55:07.664Z,9.87
2019-03-01T11:56:07.645Z,9.94
2019-03-01T11:57:07.634Z,9.86
2019-03-01T11:58:07.681Z,9.84
2019-03-01T11:59:07.616Z,9.89
2019-03-01T12:00:07.604Z,9.87
2019-03-01T12:01:16.701Z,9.84
2019-03-01T12:02:08.576Z,9.79
2019-03-01T12:03:07.567Z,9.79
2019-03-01T12:04:07.603Z,9.84
2019-03-01T12:05:07.552Z,9.80
2019-03-01T12:06:07.541Z,9.73
2019-03-01T12:07:07.561Z,9.76
2019-03-01T12:08:07.519Z,9.79
2019-03-01T12:09:07.502Z,9.66
2019-03-01T12:10:07.514Z,9.65
2019-03-01T12:11:07.489Z,9.72
2019-03-01T12:12:07.476Z,9.62
2019-03-01T12:13:07.467Z,9.54
2019-03-01T12:14:07.492Z,9.59
2019-03-01T12:15:07.479Z,9.59
2019-03-01T12:16:07.433Z,9.59
2019-03-01T12:17:07.421Z,9.68
2019-03-01T12:18:07.426Z,9.55
2019-03-01T12:19:07.402Z,9.61
2019-03-01T12:20:07.413Z,9.66
2019-03-01T12:21:07.370Z,9.64
2019-03-01T12:22:16.716Z,9.66
2019-03-01T12:23:08.353Z,9.77
2019-03-01T12:24:07.348Z,9.65
2019-03-01T12:25:07.383Z,9.68
2019-03-01T12:26:07.341Z,9.65
2019-03-01T12:27:07.322Z,9.72
2019-03-01T12:28:07.298Z,9.65
2019-03-01T12:29:07.291Z,9.64
2019-03-01T12:30:07.282Z,9.68
2019-03-01T12:31:07.299Z,9.64
2019-03-01T12:32:07.253Z,9.66
2019-03-01T12:33:07.245Z,9.66
2019-03-01T12:34:07.231Z,9.69
2019-03-01T12:35:07.222Z,9.69
2019-03-01T12:36:07.254Z,9.61
2019-03-01T12:37:07.204Z,9.58
2019-03-01T12:38:07.193Z,9.55
2019-03-01T12:39:07.187Z,9.55
2019-03-01T12:40:07.169Z,9.54
2019-03-01T12:41:07.189Z,9.44
2019-03-01T12:42:07.146Z,9.47
2019-03-01T12:43:07.133Z,9.44
2019-03-01T12:44:07.127Z,9.44
2019-03-01T12:45:07.115Z,9.40
2019-03-01T12:46:07.103Z,9.40
2019-03-01T12:47:07.109Z,9.36
2019-03-01T12:48:07.794Z,9.29
2019-03-01T12:49:07.074Z,9.28
2019-03-01T12:50:07.080Z,9.28
2019-03-01T12:51:07.056Z,9.31
2019-03-01T12:52:07.129Z,9.39
2019-03-01T12:53:07.069Z,9.41
2019-03-01T12:54:07.013Z,9.44
2019-03-01T12:55:07.002Z,9.40
2019-03-01T12:56:06.997Z,9.44
2019-03-01T12:57:06.985Z,9.41
2019-03-01T12:58:07.010Z,9.44
2019-03-01T12:59:06.967Z,9.44
2019-03-01T13:00:06.946Z,9.41
2019-03-01T13:01:06.936Z,9.48
2019-03-01T13:02:06.931Z,9.44
2019-03-01T13:03:09.013Z,9.43
2019-03-01T13:04:06.904Z,9.46
2019-03-01T13:05:06.893Z,9.43
2019-03-01T13:06:06.913Z,9.46
2019-03-01T13:07:06.869Z,9.44
2019-03-01T13:08:06.880Z,9.39
2019-03-01T13:09:06.887Z,9.28
2019-03-01T13:10:07.067Z,9.29
2019-03-01T13:11:06.837Z,9.18
2019-03-01T13:12:06.819Z,9.21
2019-03-01T13:13:08.347Z,9.06
2019-03-01T13:14:07.341Z,9.10
2019-03-01T13:15:06.820Z,9.11
2019-03-01T13:16:06.781Z,9.10
2019-03-01T13:17:06.771Z,9.21